sensor_id;sensor_type;location;lat;lon;timestamp;P1;durP1;ratioP1;P2;durP2;ratioP2
37221;SDS011;23119;51.842;-2.230;2023-03-01T00:02:07;0.80;;;0.00;;
37221;SDS011;23119;51.842;-2.230;2023-03-01T00:04:35;0.30;;;0.00;;
37221;SDS011;23119;51.842;-2.230;2023-03-01T00:07:01;0.63;;;0.10;;
37221;SDS011;23119;51.842;-2.230;2023-03-01T00:09:29;1.42;;;0.10;;
37221;SDS011;23119;51.842;-2.230;2023-03-01T00:12:00;0.10;;;0.00;;
37221;SDS011;23119;51.842;-2.230;2023-03-01T00:14:33;0.20;;;0.00;;
37221;SDS011;23119;51.842;-2.230;2023-03-01T00:17:03;0.45;;;0.00;;
37221;SDS011;23119;51.842;-2.230;2023-03-01T00:19:29;0.75;;;0.00;;
37221;SDS011;23119;51.842;-2.230;2023-03-01T00:21:57;0.00;;;0.00;;
37221;SDS011;23119;51.842;-2.230;2023-03-01T00:24:23;0.10;;;0.00;;
37221;SDS011;23119;51.842;-2.230;2023-03-01T00:26:52;0.10;;;0.00;;
37221;SDS011;23119;51.842;-2.230;2023-03-01T00:29:22;0.10;;;0.00;;
37221;SDS011;23119;51.842;-2.230;2023-03-01T00:31:54;0.40;;;0.00;;
37221;SDS011;23119;51.842;-2.230;2023-03-01T00:34:21;1.33;;;0.10;;
37221;SDS011;23119;51.842;-2.230;2023-03-01T00:36:49;2.35;;;0.03;;
37221;SDS011;23119;51.842;-2.230;2023-03-01T00:39:18;1.10;;;0.00;;
37221;SDS011;23119;51.842;-2.230;2023-03-01T00:41:52;0.20;;;0.00;;
37221;SDS011;23119;51.842;-2.230;2023-03-01T00:44:24;0.20;;;0.00;;
37221;SDS011;23119;51.842;-2.230;2023-03-01T00:46:53;1.65;;;0.00;;
37221;SDS011;23119;51.842;-2.230;2023-03-01T00:49:30;0.52;;;0.10;;
37221;SDS011;23119;51.842;-2.230;2023-03-01T00:51:56;0.10;;;0.00;;
37221;SDS011;23119;51.842;-2.230;2023-03-01T00:54:24;0.10;;;0.00;;
37221;SDS011;23119;51.842;-2.230;2023-03-01T00:56:55;0.10;;;0.00;;
37221;SDS011;23119;51.842;-2.230;2023-03-01T00:59:21;0.28;;;0.00;;
37221;SDS011;23119;51.842;-2.230;2023-03-01T01:04:21;0.57;;;0.00;;
37221;SDS011;23119;51.842;-2.230;2023-03-01T01:06:49;0.50;;;0.15;;
37221;SDS011;23119;51.842;-2.230;2023-03-01T01:09:15;0.60;;;0.10;;
37221;SDS011;23119;51.842;-2.230;2023-03-01T01:11:48;2.42;;;0.10;;
37221;SDS011;23119;51.842;-2.230;2023-03-01T01:14:18;5.85;;;0.20;;
37221;SDS011;23119;51.842;-2.230;2023-03-01T01:16:52;1.60;;;0.10;;
37221;SDS011;23119;51.842;-2.230;2023-03-01T01:19:17;0.88;;;0.20;;
37221;SDS011;23119;51.842;-2.230;2023-03-01T01:21:46;1.63;;;0.20;;
37221;SDS011;23119;51.842;-2.230;2023-03-01T01:24:16;1.90;;;0.30;;
37221;SDS011;23119;51.842;-2.230;2023-03-01T01:26:42;1.65;;;0.15;;
37221;SDS011;23119;51.842;-2.230;2023-03-01T01:29:11;0.20;;;0.00;;
37221;SDS011;23119;51.842;-2.230;2023-03-01T01:31:37;1.40;;;0.20;;
37221;SDS011;23119;51.842;-2.230;2023-03-01T01:34:05;2.38;;;0.22;;
37221;SDS011;23119;51.842;-2.230;2023-03-01T01:36:43;0.77;;;0.10;;
37221;SDS011;23119;51.842;-2.230;2023-03-01T01:39:12;1.50;;;0.20;;
37221;SDS011;23119;51.842;-2.230;2023-03-01T01:41:46;2.13;;;0.10;;
37221;SDS011;23119;51.842;-2.230;2023-03-01T01:44:16;0.40;;;0.10;;
37221;SDS011;23119;51.842;-2.230;2023-03-01T01:46:50;2.53;;;0.20;;
37221;SDS011;23119;51.842;-2.230;2023-03-01T01:49:32;0.70;;;0.20;;
37221;SDS011;23119;51.842;-2.230;2023-03-01T01:52:19;2.72;;;0.20;;
37221;SDS011;23119;51.842;-2.230;2023-03-01T01:54:52;0.80;;;0.20;;
37221;SDS011;23119;51.842;-2.230;2023-03-01T02:00:33;0.75;;;0.20;;
37221;SDS011;23119;51.842;-2.230;2023-03-01T02:03:04;0.60;;;0.20;;
37221;SDS011;23119;51.842;-2.230;2023-03-01T02:05:37;1.88;;;0.30;;
37221;SDS011;23119;51.842;-2.230;2023-03-01T02:08:11;1.02;;;0.20;;
37221;SDS011;23119;51.842;-2.230;2023-03-01T02:10:38;0.93;;;0.10;;
37221;SDS011;23119;51.842;-2.230;2023-03-01T02:13:07;1.85;;;0.20;;
37221;SDS011;23119;51.842;-2.230;2023-03-01T02:15:37;0.30;;;0.20;;
37221;SDS011;23119;51.842;-2.230;2023-03-01T02:18:13;3.00;;;0.22;;
37221;SDS011;23119;51.842;-2.230;2023-03-01T02:23:16;1.83;;;0.20;;
37221;SDS011;23119;51.842;-2.230;2023-03-01T02:25:52;0.57;;;0.20;;
37221;SDS011;23119;51.842;-2.230;2023-03-01T02:30:58;0.40;;;0.22;;
37221;SDS011;23119;51.842;-2.230;2023-03-01T02:33:44;1.33;;;0.30;;
37221;SDS011;23119;51.842;-2.230;2023-03-01T02:36:15;1.15;;;0.30;;
37221;SDS011;23119;51.842;-2.230;2023-03-01T02:38:43;0.90;;;0.20;;
37221;SDS011;23119;51.842;-2.230;2023-03-01T02:41:13;2.13;;;0.30;;
37221;SDS011;23119;51.842;-2.230;2023-03-01T02:43:43;1.52;;;0.20;;
37221;SDS011;23119;51.842;-2.230;2023-03-01T02:46:17;2.03;;;0.20;;
37221;SDS011;23119;51.842;-2.230;2023-03-01T02:48:57;2.15;;;0.30;;
37221;SDS011;23119;51.842;-2.230;2023-03-01T02:54:10;0.70;;;0.30;;
37221;SDS011;23119;51.842;-2.230;2023-03-01T02:56:46;1.08;;;0.30;;
37221;SDS011;23119;51.842;-2.230;2023-03-01T02:59:18;0.55;;;0.30;;
37221;SDS011;23119;51.842;-2.230;2023-03-01T03:01:50;2.85;;;0.40;;
37221;SDS011;23119;51.842;-2.230;2023-03-01T03:04:18;1.10;;;0.50;;
37221;SDS011;23119;51.842;-2.230;2023-03-01T03:09:18;3.70;;;0.40;;
37221;SDS011;23119;51.842;-2.230;2023-03-01T03:11:46;1.63;;;0.40;;
37221;SDS011;23119;51.842;-2.230;2023-03-01T03:14:15;1.20;;;0.30;;
37221;SDS011;23119;51.842;-2.230;2023-03-01T03:16:49;0.90;;;0.40;;
37221;SDS011;23119;51.842;-2.230;2023-03-01T03:19:20;1.50;;;0.40;;
37221;SDS011;23119;51.842;-2.230;2023-03-01T03:21:49;1.30;;;0.30;;
37221;SDS011;23119;51.842;-2.230;2023-03-01T03:24:20;1.27;;;0.40;;
37221;SDS011;23119;51.842;-2.230;2023-03-01T03:26:46;2.08;;;0.50;;
37221;SDS011;23119;51.842;-2.230;2023-03-01T03:29:23;1.13;;;0.40;;
37221;SDS011;23119;51.842;-2.230;2023-03-01T03:31:49;1.90;;;0.40;;
37221;SDS011;23119;51.842;-2.230;2023-03-01T03:34:15;3.17;;;0.70;;
37221;SDS011;23119;51.842;-2.230;2023-03-01T03:36:42;1.20;;;0.30;;
37221;SDS011;23119;51.842;-2.230;2023-03-01T03:39:13;2.60;;;0.60;;
37221;SDS011;23119;51.842;-2.230;2023-03-01T03:41:48;2.92;;;0.60;;
37221;SDS011;23119;51.842;-2.230;2023-03-01T03:44:22;6.18;;;0.77;;
37221;SDS011;23119;51.842;-2.230;2023-03-01T03:46:53;2.47;;;0.45;;
37221;SDS011;23119;51.842;-2.230;2023-03-01T03:49:24;1.30;;;0.75;;
37221;SDS011;23119;51.842;-2.230;2023-03-01T03:51:53;2.28;;;0.50;;
37221;SDS011;23119;51.842;-2.230;2023-03-01T03:54:23;2.83;;;0.70;;
37221;SDS011;23119;51.842;-2.230;2023-03-01T03:56:51;2.72;;;0.60;;
37221;SDS011;23119;51.842;-2.230;2023-03-01T03:59:26;2.10;;;0.50;;
37221;SDS011;23119;51.842;-2.230;2023-03-01T04:01:52;2.65;;;0.68;;
37221;SDS011;23119;51.842;-2.230;2023-03-01T04:04:22;2.92;;;0.73;;
37221;SDS011;23119;51.842;-2.230;2023-03-01T04:06:50;3.38;;;0.70;;
37221;SDS011;23119;51.842;-2.230;2023-03-01T04:09:16;1.63;;;0.60;;
37221;SDS011;23119;51.842;-2.230;2023-03-01T04:11:42;3.13;;;1.13;;
37221;SDS011;23119;51.842;-2.230;2023-03-01T04:14:08;2.22;;;0.60;;
37221;SDS011;23119;51.842;-2.230;2023-03-01T04:16:34;1.52;;;0.55;;
37221;SDS011;23119;51.842;-2.230;2023-03-01T04:19:00;4.63;;;0.57;;
37221;SDS011;23119;51.842;-2.230;2023-03-01T04:21:33;2.75;;;0.60;;
37221;SDS011;23119;51.842;-2.230;2023-03-01T04:23:59;3.45;;;0.60;;
37221;SDS011;23119;51.842;-2.230;2023-03-01T04:26:28;2.53;;;0.57;;
37221;SDS011;23119;51.842;-2.230;2023-03-01T04:28:56;4.55;;;1.00;;
37221;SDS011;23119;51.842;-2.230;2023-03-01T04:31:27;2.85;;;0.70;;
37221;SDS011;23119;51.842;-2.230;2023-03-01T04:33:56;3.50;;;0.90;;
37221;SDS011;23119;51.842;-2.230;2023-03-01T04:36:26;2.00;;;0.70;;
37221;SDS011;23119;51.842;-2.230;2023-03-01T04:38:53;6.22;;;1.67;;
37221;SDS011;23119;51.842;-2.230;2023-03-01T04:41:23;3.35;;;1.17;;
37221;SDS011;23119;51.842;-2.230;2023-03-01T04:43:52;2.80;;;1.15;;
37221;SDS011;23119;51.842;-2.230;2023-03-01T04:46:20;4.47;;;1.50;;
37221;SDS011;23119;51.842;-2.230;2023-03-01T04:48:53;6.90;;;1.48;;
37221;SDS011;23119;51.842;-2.230;2023-03-01T04:51:28;2.90;;;1.20;;
37221;SDS011;23119;51.842;-2.230;2023-03-01T04:53:56;3.60;;;0.90;;
37221;SDS011;23119;51.842;-2.230;2023-03-01T04:56:22;2.58;;;0.95;;
37221;SDS011;23119;51.842;-2.230;2023-03-01T04:58:52;3.15;;;1.17;;
37221;SDS011;23119;51.842;-2.230;2023-03-01T05:01:21;3.00;;;0.93;;
37221;SDS011;23119;51.842;-2.230;2023-03-01T05:03:50;3.15;;;1.00;;
37221;SDS011;23119;51.842;-2.230;2023-03-01T05:06:20;3.40;;;1.00;;
37221;SDS011;23119;51.842;-2.230;2023-03-01T05:08:51;2.00;;;0.70;;
37221;SDS011;23119;51.842;-2.230;2023-03-01T05:11:19;2.85;;;0.80;;
37221;SDS011;23119;51.842;-2.230;2023-03-01T05:13:47;2.17;;;0.70;;
37221;SDS011;23119;51.842;-2.230;2023-03-01T05:16:17;3.95;;;0.85;;
37221;SDS011;23119;51.842;-2.230;2023-03-01T05:18:45;5.55;;;0.95;;
37221;SDS011;23119;51.842;-2.230;2023-03-01T05:21:16;1.20;;;0.60;;
37221;SDS011;23119;51.842;-2.230;2023-03-01T05:23:45;3.03;;;0.52;;
37221;SDS011;23119;51.842;-2.230;2023-03-01T05:26:11;2.67;;;0.90;;
37221;SDS011;23119;51.842;-2.230;2023-03-01T05:28:40;2.25;;;0.55;;
37221;SDS011;23119;51.842;-2.230;2023-03-01T05:31:06;4.38;;;0.60;;
37221;SDS011;23119;51.842;-2.230;2023-03-01T05:33:37;2.90;;;0.70;;
37221;SDS011;23119;51.842;-2.230;2023-03-01T05:36:09;2.65;;;0.45;;
37221;SDS011;23119;51.842;-2.230;2023-03-01T05:38:38;2.45;;;1.63;;
37221;SDS011;23119;51.842;-2.230;2023-03-01T05:41:04;2.28;;;0.50;;
37221;SDS011;23119;51.842;-2.230;2023-03-01T05:43:32;2.50;;;0.65;;
37221;SDS011;23119;51.842;-2.230;2023-03-01T05:46:00;3.30;;;0.80;;
37221;SDS011;23119;51.842;-2.230;2023-03-01T05:48:29;3.25;;;1.10;;
37221;SDS011;23119;51.842;-2.230;2023-03-01T05:50:57;5.40;;;1.00;;
37221;SDS011;23119;51.842;-2.230;2023-03-01T05:53:30;1.90;;;0.75;;
37221;SDS011;23119;51.842;-2.230;2023-03-01T05:55:55;4.38;;;0.88;;
37221;SDS011;23119;51.842;-2.230;2023-03-01T05:58:26;2.38;;;0.60;;
37221;SDS011;23119;51.842;-2.230;2023-03-01T06:00:52;5.07;;;0.57;;
37221;SDS011;23119;51.842;-2.230;2023-03-01T06:03:20;4.82;;;0.63;;
37221;SDS011;23119;51.842;-2.230;2023-03-01T06:05:55;4.57;;;0.80;;
37221;SDS011;23119;51.842;-2.230;2023-03-01T06:08:21;7.13;;;1.60;;
37221;SDS011;23119;51.842;-2.230;2023-03-01T06:10:51;3.25;;;0.50;;
37221;SDS011;23119;51.842;-2.230;2023-03-01T06:13:17;7.70;;;0.85;;
37221;SDS011;23119;51.842;-2.230;2023-03-01T06:15:46;2.28;;;0.60;;
37221;SDS011;23119;51.842;-2.230;2023-03-01T06:18:17;2.25;;;0.50;;
37221;SDS011;23119;51.842;-2.230;2023-03-01T06:20:54;6.18;;;0.70;;
37221;SDS011;23119;51.842;-2.230;2023-03-01T06:23:27;4.82;;;0.63;;
37221;SDS011;23119;51.842;-2.230;2023-03-01T06:25:53;5.82;;;0.88;;
37221;SDS011;23119;51.842;-2.230;2023-03-01T06:28:19;4.25;;;0.73;;
37221;SDS011;23119;51.842;-2.230;2023-03-01T06:30:49;6.45;;;1.67;;
37221;SDS011;23119;51.842;-2.230;2023-03-01T06:33:18;8.48;;;1.10;;
37221;SDS011;23119;51.842;-2.230;2023-03-01T06:35:45;7.45;;;1.08;;
37221;SDS011;23119;51.842;-2.230;2023-03-01T06:38:17;5.18;;;1.17;;
37221;SDS011;23119;51.842;-2.230;2023-03-01T06:40:54;5.68;;;1.23;;
37221;SDS011;23119;51.842;-2.230;2023-03-01T06:43:21;5.70;;;1.33;;
37221;SDS011;23119;51.842;-2.230;2023-03-01T06:45:51;10.27;;;1.38;;
37221;SDS011;23119;51.842;-2.230;2023-03-01T06:48:24;5.72;;;1.10;;
37221;SDS011;23119;51.842;-2.230;2023-03-01T06:50:53;4.40;;;1.35;;
37221;SDS011;23119;51.842;-2.230;2023-03-01T06:53:23;7.80;;;2.05;;
37221;SDS011;23119;51.842;-2.230;2023-03-01T06:55:53;3.30;;;1.00;;
37221;SDS011;23119;51.842;-2.230;2023-03-01T06:58:19;4.82;;;1.13;;
37221;SDS011;23119;51.842;-2.230;2023-03-01T07:00:48;5.85;;;1.35;;
37221;SDS011;23119;51.842;-2.230;2023-03-01T07:03:17;3.60;;;1.40;;
37221;SDS011;23119;51.842;-2.230;2023-03-01T07:05:43;7.93;;;1.15;;
37221;SDS011;23119;51.842;-2.230;2023-03-01T07:08:09;10.27;;;2.40;;
37221;SDS011;23119;51.842;-2.230;2023-03-01T07:10:35;6.35;;;1.80;;
37221;SDS011;23119;51.842;-2.230;2023-03-01T07:13:01;9.95;;;1.40;;
37221;SDS011;23119;51.842;-2.230;2023-03-01T07:15:27;5.55;;;1.70;;
37221;SDS011;23119;51.842;-2.230;2023-03-01T07:17:53;4.88;;;1.20;;
37221;SDS011;23119;51.842;-2.230;2023-03-01T07:20:22;3.65;;;1.33;;
37221;SDS011;23119;51.842;-2.230;2023-03-01T07:22:51;6.40;;;1.55;;
37221;SDS011;23119;51.842;-2.230;2023-03-01T07:25:26;4.82;;;1.60;;
37221;SDS011;23119;51.842;-2.230;2023-03-01T07:27:54;6.07;;;2.55;;
37221;SDS011;23119;51.842;-2.230;2023-03-01T07:32:56;4.13;;;1.58;;
37221;SDS011;23119;51.842;-2.230;2023-03-01T07:35:23;5.13;;;1.33;;
37221;SDS011;23119;51.842;-2.230;2023-03-01T07:37:52;4.43;;;1.50;;
37221;SDS011;23119;51.842;-2.230;2023-03-01T07:40:19;5.57;;;1.83;;
37221;SDS011;23119;51.842;-2.230;2023-03-01T07:42:47;6.25;;;2.42;;
37221;SDS011;23119;51.842;-2.230;2023-03-01T07:45:18;5.65;;;1.98;;
37221;SDS011;23119;51.842;-2.230;2023-03-01T07:47:46;9.68;;;2.28;;
37221;SDS011;23119;51.842;-2.230;2023-03-01T07:50:15;4.07;;;2.00;;
37221;SDS011;23119;51.842;-2.230;2023-03-01T07:52:41;5.20;;;1.90;;
37221;SDS011;23119;51.842;-2.230;2023-03-01T07:55:09;6.70;;;1.90;;
37221;SDS011;23119;51.842;-2.230;2023-03-01T07:57:35;7.30;;;2.72;;
37221;SDS011;23119;51.842;-2.230;2023-03-01T08:00:04;11.13;;;2.78;;
37221;SDS011;23119;51.842;-2.230;2023-03-01T08:02:31;7.50;;;3.08;;
37221;SDS011;23119;51.842;-2.230;2023-03-01T08:05:15;6.00;;;2.42;;
37221;SDS011;23119;51.842;-2.230;2023-03-01T08:07:41;4.97;;;2.65;;
37221;SDS011;23119;51.842;-2.230;2023-03-01T08:10:10;6.65;;;3.30;;
37221;SDS011;23119;51.842;-2.230;2023-03-01T08:12:39;11.20;;;2.75;;
37221;SDS011;23119;51.842;-2.230;2023-03-01T08:15:04;9.98;;;3.70;;
37221;SDS011;23119;51.842;-2.230;2023-03-01T08:17:30;8.52;;;2.90;;
37221;SDS011;23119;51.842;-2.230;2023-03-01T08:19:59;7.57;;;3.03;;
37221;SDS011;23119;51.842;-2.230;2023-03-01T08:22:31;7.90;;;3.15;;
37221;SDS011;23119;51.842;-2.230;2023-03-01T08:25:05;5.65;;;1.95;;
37221;SDS011;23119;51.842;-2.230;2023-03-01T08:27:31;6.78;;;2.90;;
37221;SDS011;23119;51.842;-2.230;2023-03-01T08:29:57;6.97;;;3.30;;
37221;SDS011;23119;51.842;-2.230;2023-03-01T08:32:28;9.85;;;3.38;;
37221;SDS011;23119;51.842;-2.230;2023-03-01T08:34:54;8.13;;;2.35;;
37221;SDS011;23119;51.842;-2.230;2023-03-01T08:37:22;10.23;;;3.42;;
37221;SDS011;23119;51.842;-2.230;2023-03-01T08:39:53;12.68;;;4.45;;
37221;SDS011;23119;51.842;-2.230;2023-03-01T08:42:19;7.03;;;3.13;;
37221;SDS011;23119;51.842;-2.230;2023-03-01T08:44:45;6.43;;;2.40;;
37221;SDS011;23119;51.842;-2.230;2023-03-01T08:47:11;3.72;;;1.83;;
37221;SDS011;23119;51.842;-2.230;2023-03-01T08:49:36;6.88;;;2.60;;
37221;SDS011;23119;51.842;-2.230;2023-03-01T08:55:10;6.07;;;1.98;;
37221;SDS011;23119;51.842;-2.230;2023-03-01T08:57:35;7.47;;;1.60;;
37221;SDS011;23119;51.842;-2.230;2023-03-01T09:00:04;3.88;;;1.38;;
37221;SDS011;23119;51.842;-2.230;2023-03-01T09:02:33;3.40;;;1.60;;
37221;SDS011;23119;51.842;-2.230;2023-03-01T09:04:59;3.50;;;1.38;;
37221;SDS011;23119;51.842;-2.230;2023-03-01T09:07:26;4.60;;;1.33;;
37221;SDS011;23119;51.842;-2.230;2023-03-01T09:09:55;7.32;;;1.40;;
37221;SDS011;23119;51.842;-2.230;2023-03-01T09:12:20;8.18;;;1.60;;
37221;SDS011;23119;51.842;-2.230;2023-03-01T09:14:49;5.57;;;1.83;;
37221;SDS011;23119;51.842;-2.230;2023-03-01T09:17:15;3.88;;;1.75;;
37221;SDS011;23119;51.842;-2.230;2023-03-01T09:19:46;3.97;;;1.50;;
37221;SDS011;23119;51.842;-2.230;2023-03-01T09:22:15;5.72;;;1.88;;
37221;SDS011;23119;51.842;-2.230;2023-03-01T09:24:41;3.53;;;1.90;;
37221;SDS011;23119;51.842;-2.230;2023-03-01T09:27:12;3.50;;;1.30;;
37221;SDS011;23119;51.842;-2.230;2023-03-01T09:29:39;3.88;;;0.95;;
37221;SDS011;23119;51.842;-2.230;2023-03-01T09:32:08;4.80;;;1.52;;
37221;SDS011;23119;51.842;-2.230;2023-03-01T09:34:36;3.95;;;1.27;;
37221;SDS011;23119;51.842;-2.230;2023-03-01T09:37:36;2.60;;;0.80;;
37221;SDS011;23119;51.842;-2.230;2023-03-01T09:40:03;3.80;;;0.73;;
37221;SDS011;23119;51.842;-2.230;2023-03-01T09:42:34;3.20;;;0.80;;
37221;SDS011;23119;51.842;-2.230;2023-03-01T09:45:11;3.30;;;1.08;;
37221;SDS011;23119;51.842;-2.230;2023-03-01T09:47:48;2.10;;;0.90;;
37221;SDS011;23119;51.842;-2.230;2023-03-01T09:50:20;4.35;;;1.02;;
37221;SDS011;23119;51.842;-2.230;2023-03-01T09:53:49;5.45;;;1.27;;
37221;SDS011;23119;51.842;-2.230;2023-03-01T09:55:55;3.78;;;0.90;;
37221;SDS011;23119;51.842;-2.230;2023-03-01T10:01:02;2.90;;;1.00;;
37221;SDS011;23119;51.842;-2.230;2023-03-01T10:04:01;7.35;;;1.10;;
37221;SDS011;23119;51.842;-2.230;2023-03-01T10:06:33;2.13;;;0.75;;
37221;SDS011;23119;51.842;-2.230;2023-03-01T10:09:00;2.80;;;1.00;;
37221;SDS011;23119;51.842;-2.230;2023-03-01T10:11:39;3.33;;;0.40;;
37221;SDS011;23119;51.842;-2.230;2023-03-01T10:14:17;4.75;;;0.60;;
37221;SDS011;23119;51.842;-2.230;2023-03-01T10:16:58;2.28;;;0.63;;
37221;SDS011;23119;51.842;-2.230;2023-03-01T10:19:47;3.03;;;0.60;;
37221;SDS011;23119;51.842;-2.230;2023-03-01T10:22:15;4.10;;;0.60;;
37221;SDS011;23119;51.842;-2.230;2023-03-01T10:24:46;3.42;;;0.90;;
37221;SDS011;23119;51.842;-2.230;2023-03-01T10:32:48;1.95;;;0.60;;
37221;SDS011;23119;51.842;-2.230;2023-03-01T10:35:20;2.28;;;0.90;;
37221;SDS011;23119;51.842;-2.230;2023-03-01T10:40:34;5.00;;;0.73;;
37221;SDS011;23119;51.842;-2.230;2023-03-01T10:43:02;3.90;;;0.93;;
37221;SDS011;23119;51.842;-2.230;2023-03-01T10:45:36;1.65;;;0.52;;
37221;SDS011;23119;51.842;-2.230;2023-03-01T10:48:13;3.00;;;1.05;;
37221;SDS011;23119;51.842;-2.230;2023-03-01T10:53:25;2.60;;;1.00;;
37221;SDS011;23119;51.842;-2.230;2023-03-01T10:58:58;2.88;;;1.00;;
37221;SDS011;23119;51.842;-2.230;2023-03-01T11:01:28;2.22;;;1.00;;
37221;SDS011;23119;51.842;-2.230;2023-03-01T11:04:17;3.15;;;0.90;;
37221;SDS011;23119;51.842;-2.230;2023-03-01T11:06:57;4.00;;;1.10;;
37221;SDS011;23119;51.842;-2.230;2023-03-01T11:09:24;2.83;;;0.98;;
37221;SDS011;23119;51.842;-2.230;2023-03-01T11:11:54;4.25;;;1.50;;
37221;SDS011;23119;51.842;-2.230;2023-03-01T11:17:36;2.97;;;1.70;;
37221;SDS011;23119;51.842;-2.230;2023-03-01T11:20:15;2.70;;;1.58;;
37221;SDS011;23119;51.842;-2.230;2023-03-01T11:23:13;4.43;;;1.98;;
37221;SDS011;23119;51.842;-2.230;2023-03-01T11:28:35;2.55;;;1.60;;
37221;SDS011;23119;51.842;-2.230;2023-03-01T11:31:10;3.65;;;1.30;;
37221;SDS011;23119;51.842;-2.230;2023-03-01T11:36:58;4.18;;;1.00;;
37221;SDS011;23119;51.842;-2.230;2023-03-01T11:39:33;2.00;;;0.80;;
37221;SDS011;23119;51.842;-2.230;2023-03-01T11:45:23;1.05;;;0.50;;
37221;SDS011;23119;51.842;-2.230;2023-03-01T12:01:55;3.53;;;1.73;;
37221;SDS011;23119;51.842;-2.230;2023-03-01T12:10:28;3.05;;;1.10;;
37221;SDS011;23119;51.842;-2.230;2023-03-01T12:31:57;4.97;;;1.52;;
37221;SDS011;23119;51.842;-2.230;2023-03-01T12:35:03;3.15;;;1.15;;
37221;SDS011;23119;51.842;-2.230;2023-03-01T12:43:08;1.98;;;0.82;;
37221;SDS011;23119;51.842;-2.230;2023-03-01T12:49:00;5.13;;;0.80;;
37221;SDS011;23119;51.842;-2.230;2023-03-01T12:52:24;3.92;;;1.88;;
37221;SDS011;23119;51.842;-2.230;2023-03-01T12:54:56;3.90;;;1.52;;
37221;SDS011;23119;51.842;-2.230;2023-03-01T13:11:48;3.50;;;1.33;;
37221;SDS011;23119;51.842;-2.230;2023-03-01T13:16:50;3.20;;;1.10;;
37221;SDS011;23119;51.842;-2.230;2023-03-01T13:21:54;2.13;;;1.02;;
37221;SDS011;23119;51.842;-2.230;2023-03-01T13:32:20;0.77;;;0.32;;
37221;SDS011;23119;51.842;-2.230;2023-03-01T13:34:58;1.58;;;0.40;;
37221;SDS011;23119;51.842;-2.230;2023-03-01T13:37:31;7.22;;;0.73;;
37221;SDS011;23119;51.842;-2.230;2023-03-01T13:40:05;2.03;;;0.50;;
37221;SDS011;23119;51.842;-2.230;2023-03-01T13:42:55;2.27;;;0.40;;
37221;SDS011;23119;51.842;-2.230;2023-03-01T13:48:11;2.70;;;1.30;;
37221;SDS011;23119;51.842;-2.230;2023-03-01T13:50:53;3.10;;;0.90;;
37221;SDS011;23119;51.842;-2.230;2023-03-01T13:53:23;3.78;;;0.80;;
37221;SDS011;23119;51.842;-2.230;2023-03-01T13:55:52;3.33;;;0.80;;
37221;SDS011;23119;51.842;-2.230;2023-03-01T13:58:53;2.25;;;0.77;;
37221;SDS011;23119;51.842;-2.230;2023-03-01T14:01:28;2.03;;;0.75;;
37221;SDS011;23119;51.842;-2.230;2023-03-01T14:06:31;2.45;;;1.10;;
37221;SDS011;23119;51.842;-2.230;2023-03-01T14:21:23;4.68;;;1.13;;
37221;SDS011;23119;51.842;-2.230;2023-03-01T14:23:50;4.93;;;1.00;;
37221;SDS011;23119;51.842;-2.230;2023-03-01T14:26:22;7.55;;;1.30;;
37221;SDS011;23119;51.842;-2.230;2023-03-01T14:28:48;4.80;;;1.33;;
37221;SDS011;23119;51.842;-2.230;2023-03-01T14:34:18;3.70;;;1.70;;
37221;SDS011;23119;51.842;-2.230;2023-03-01T14:36:51;3.13;;;1.23;;
37221;SDS011;23119;51.842;-2.230;2023-03-01T14:39:23;3.45;;;0.73;;
37221;SDS011;23119;51.842;-2.230;2023-03-01T14:41:54;6.38;;;1.02;;
37221;SDS011;23119;51.842;-2.230;2023-03-01T14:44:25;4.50;;;1.15;;
37221;SDS011;23119;51.842;-2.230;2023-03-01T14:46:52;4.43;;;1.30;;
37221;SDS011;23119;51.842;-2.230;2023-03-01T14:49:25;3.40;;;1.05;;
37221;SDS011;23119;51.842;-2.230;2023-03-01T14:51:59;4.43;;;1.00;;
37221;SDS011;23119;51.842;-2.230;2023-03-01T14:54:41;1.85;;;0.90;;
37221;SDS011;23119;51.842;-2.230;2023-03-01T14:57:21;4.32;;;1.00;;
37221;SDS011;23119;51.842;-2.230;2023-03-01T14:59:53;8.40;;;1.10;;
37221;SDS011;23119;51.842;-2.230;2023-03-01T15:02:21;1.58;;;1.08;;
37221;SDS011;23119;51.842;-2.230;2023-03-01T15:05:01;2.83;;;0.77;;
37221;SDS011;23119;51.842;-2.230;2023-03-01T15:07:33;4.07;;;0.95;;
37221;SDS011;23119;51.842;-2.230;2023-03-01T15:10:03;2.95;;;0.90;;
37221;SDS011;23119;51.842;-2.230;2023-03-01T15:14:58;5.35;;;1.38;;
37221;SDS011;23119;51.842;-2.230;2023-03-01T15:17:44;5.85;;;0.95;;
37221;SDS011;23119;51.842;-2.230;2023-03-01T15:20:16;4.60;;;0.82;;
37221;SDS011;23119;51.842;-2.230;2023-03-01T15:22:46;5.38;;;0.95;;
37221;SDS011;23119;51.842;-2.230;2023-03-01T15:25:26;2.55;;;0.73;;
37221;SDS011;23119;51.842;-2.230;2023-03-01T15:27:57;3.58;;;0.80;;
37221;SDS011;23119;51.842;-2.230;2023-03-01T15:30:34;2.00;;;0.60;;
37221;SDS011;23119;51.842;-2.230;2023-03-01T15:35:53;3.92;;;0.90;;
37221;SDS011;23119;51.842;-2.230;2023-03-01T15:41:03;4.65;;;0.85;;
37221;SDS011;23119;51.842;-2.230;2023-03-01T15:43:48;2.55;;;0.50;;
37221;SDS011;23119;51.842;-2.230;2023-03-01T15:46:53;1.25;;;0.43;;
37221;SDS011;23119;51.842;-2.230;2023-03-01T15:49:26;2.05;;;0.40;;
37221;SDS011;23119;51.842;-2.230;2023-03-01T15:52:23;3.95;;;0.50;;
37221;SDS011;23119;51.842;-2.230;2023-03-01T15:55:04;2.90;;;0.52;;
37221;SDS011;23119;51.842;-2.230;2023-03-01T15:57:39;2.00;;;0.60;;
37221;SDS011;23119;51.842;-2.230;2023-03-01T16:00:05;2.67;;;0.60;;
37221;SDS011;23119;51.842;-2.230;2023-03-01T16:02:36;2.65;;;0.50;;
37221;SDS011;23119;51.842;-2.230;2023-03-01T16:05:02;3.85;;;0.70;;
37221;SDS011;23119;51.842;-2.230;2023-03-01T16:07:31;1.75;;;0.60;;
37221;SDS011;23119;51.842;-2.230;2023-03-01T16:09:57;2.60;;;0.50;;
37221;SDS011;23119;51.842;-2.230;2023-03-01T16:12:22;3.13;;;0.60;;
37221;SDS011;23119;51.842;-2.230;2023-03-01T16:14:52;1.33;;;0.30;;
37221;SDS011;23119;51.842;-2.230;2023-03-01T16:17:20;1.88;;;0.52;;
37221;SDS011;23119;51.842;-2.230;2023-03-01T16:19:46;3.33;;;0.60;;
37221;SDS011;23119;51.842;-2.230;2023-03-01T16:22:12;2.53;;;0.63;;
37221;SDS011;23119;51.842;-2.230;2023-03-01T16:24:37;2.70;;;0.68;;
37221;SDS011;23119;51.842;-2.230;2023-03-01T16:27:09;2.50;;;0.55;;
37221;SDS011;23119;51.842;-2.230;2023-03-01T16:29:35;2.97;;;0.57;;
37221;SDS011;23119;51.842;-2.230;2023-03-01T16:32:01;3.42;;;0.63;;
37221;SDS011;23119;51.842;-2.230;2023-03-01T16:34:27;3.60;;;0.60;;
37221;SDS011;23119;51.842;-2.230;2023-03-01T16:36:55;2.85;;;0.40;;
37221;SDS011;23119;51.842;-2.230;2023-03-01T16:39:21;0.77;;;0.40;;
37221;SDS011;23119;51.842;-2.230;2023-03-01T16:41:52;2.47;;;0.43;;
37221;SDS011;23119;51.842;-2.230;2023-03-01T16:44:23;1.75;;;0.40;;
37221;SDS011;23119;51.842;-2.230;2023-03-01T16:46:52;2.55;;;0.60;;
37221;SDS011;23119;51.842;-2.230;2023-03-01T16:49:21;2.95;;;0.70;;
37221;SDS011;23119;51.842;-2.230;2023-03-01T16:51:46;3.72;;;0.60;;
37221;SDS011;23119;51.842;-2.230;2023-03-01T16:54:14;4.43;;;0.60;;
37221;SDS011;23119;51.842;-2.230;2023-03-01T16:56:42;3.33;;;1.63;;
37221;SDS011;23119;51.842;-2.230;2023-03-01T16:59:15;2.55;;;0.85;;
37221;SDS011;23119;51.842;-2.230;2023-03-01T17:01:43;3.97;;;0.80;;
37221;SDS011;23119;51.842;-2.230;2023-03-01T17:04:12;5.53;;;1.58;;
37221;SDS011;23119;51.842;-2.230;2023-03-01T17:06:41;3.08;;;1.23;;
37221;SDS011;23119;51.842;-2.230;2023-03-01T17:09:18;5.03;;;1.65;;
37221;SDS011;23119;51.842;-2.230;2023-03-01T17:11:49;5.60;;;2.05;;
37221;SDS011;23119;51.842;-2.230;2023-03-01T17:14:20;4.28;;;1.35;;
37221;SDS011;23119;51.842;-2.230;2023-03-01T17:16:48;6.00;;;1.60;;
37221;SDS011;23119;51.842;-2.230;2023-03-01T17:19:22;6.65;;;2.05;;
37221;SDS011;23119;51.842;-2.230;2023-03-01T17:22:02;6.28;;;1.88;;
37221;SDS011;23119;51.842;-2.230;2023-03-01T17:24:39;4.57;;;2.03;;
37221;SDS011;23119;51.842;-2.230;2023-03-01T17:27:06;5.53;;;1.67;;
37221;SDS011;23119;51.842;-2.230;2023-03-01T17:29:36;3.50;;;0.93;;
37221;SDS011;23119;51.842;-2.230;2023-03-01T17:32:02;4.30;;;0.77;;